Helliar — 2EPP5 — position and weather

sailwx.info

Track history (hours):
 
Tides and Currents Weather Stations Pressure Air Temp Water Temp Dewpoint Dewpoint Depression Visibility Wind Speed Wind Dir Waves Ship Positions

Helliar

Last reported at 2015-Aug-01 15:22 UTC. Time now 2015-Aug-01 16:10 UTC.
Position N 57°09' W 002°05'.

Length 122 m; draft 5.4 m.

Type: Cargo ship. MMSI: 235087119.

Date/timePositionNaut miles runAvg speedWind from/ knotsBaromVisibWave heightAir tempDewpointWater temp
2015-Aug-01 15:22N 57°09' W 002°05'0 0.0
2015-Aug-01 14:22N 57°09' W 002°05'0 0.0
2015-Aug-01 13:10N 57°09' W 002°05'0 0.0
2015-Aug-01 12:22N 57°09' W 002°05'0 0.0
2015-Aug-01 11:16N 57°09' W 002°05'0 0.0
2015-Aug-01 07:28N 57°09' W 002°05'0 0.3
2015-Aug-01 06:32N 57°09' W 002°05'2211.3
2015-Aug-01 04:33N 57°27' W 001°41'1211.9
2015-Aug-01 03:33N 57°39' W 001°40'1212.3
2015-Aug-01 02:33N 57°51' W 001°37'4 0.1
2015-Jul-30 19:33N 57°48' W 001°38'1414.2
2015-Jul-30 18:34N 57°34' W 001°41'2814.0
2015-Jul-30 16:33N 57°09' W 002°05'0 0.3
2015-Jul-30 15:15N 57°09' W 002°05'0 0.0
2015-Jul-30 13:27N 57°09' W 002°05'0 0.0
2015-Jul-30 12:33N 57°09' W 002°05'0 0.0
2015-Jul-30 11:27N 57°09' W 002°05'0 0.0
2015-Jul-30 09:21N 57°09' W 002°05'0 0.0
2015-Jul-30 08:27N 57°09' W 002°05'0 0.2
2015-Jul-30 06:33N 57°09' W 002°05'2210.8
2015-Jul-30 04:33N 57°27' W 001°43'1110.7
2015-Jul-30 03:34N 57°37' W 001°40'1312.9
2015-Jul-30 02:33N 57°50' W 001°37'3 0.1
2015-Jul-28 20:13N 57°48' W 001°34'812.8
2015-Jul-28 19:34N 57°39' W 001°36'1313.4
2015-Jul-28 18:33N 57°26' W 001°44'1714.1
2015-Jul-28 17:19N 57°11' W 001°59'4 4.7
2015-Jul-28 16:25N 57°09' W 002°05'0 0.0
2015-Jul-28 15:25N 57°09' W 002°05'0 0.0
2015-Jul-28 14:31N 57°09' W 002°05'0 0.0
2015-Jul-28 12:13N 57°09' W 002°05'0 0.0
2015-Jul-28 11:31N 57°09' W 002°05'0 0.0
2015-Jul-28 10:31N 57°09' W 002°05'0 0.0
2015-Jul-28 09:31N 57°09' W 002°05'0 0.0
2015-Jul-28 08:19N 57°09' W 002°05'0 0.0
2015-Jul-28 07:31N 57°09' W 002°05'0 0.0
2015-Jul-28 06:31N 57°09' W 002°05'0 0.0
2015-Jul-28 05:19N 57°09' W 002°05'1 1.4
2015-Jul-28 04:33N 57°09' W 002°03'1712.8
2015-Jul-28 03:13N 57°23' W 001°46'812.1
2015-Jul-28 02:33N 57°31' W 001°42'1211.6
2015-Jul-28 01:33N 57°42' W 001°47'1211.7
2015-Jul-28 00:32N 57°53' W 001°55'7412.3
2015-Jul-27 18:33N 59°01' W 002°51'4 3.8
2015-Jul-27 17:33N 58°60' W 002°58'0 0.0
2015-Jul-27 16:33N 58°60' W 002°58'0 0.0
2015-Jul-27 15:33N 58°60' W 002°58'0 0.0
2015-Jul-27 14:33N 58°60' W 002°58'0 0.0
2015-Jul-27 13:33N 58°60' W 002°58'0 0.0
2015-Jul-27 12:33N 58°60' W 002°58'0 0.0
2015-Jul-27 11:33N 58°60' W 002°58'0 0.0
2015-Jul-27 10:33N 58°60' W 002°58'0 0.0
2015-Jul-27 09:33N 58°60' W 002°58'0 0.0
2015-Jul-27 08:33N 58°60' W 002°58'0 0.0
2015-Jul-27 07:33N 58°60' W 002°58'0 0.0
2015-Jul-27 06:33N 58°60' W 002°58'0 0.0
2015-Jul-27 05:33N 58°60' W 002°58'0 0.0
2015-Jul-27 04:33N 58°60' W 002°58'0 0.0
2015-Jul-27 03:33N 58°60' W 002°58'0 0.0
2015-Jul-27 02:33N 58°60' W 002°58'0 0.0
2015-Jul-27 01:33N 58°60' W 002°58'0 0.0
2015-Jul-27 00:33N 58°60' W 002°58'0 0.0
2015-Jul-26 23:33N 58°60' W 002°58'2 1.6
2015-Jul-26 22:33N 59°01' W 002°57'1211.9
2015-Jul-26 21:33N 58°55' W 002°38'6813.4
2015-Jul-26 16:28N 57°51' W 001°54'1415.1
2015-Jul-26 15:33N 57°38' W 001°46'2914.6
2015-Jul-26 13:33N 57°10' W 002°02'2 2.1
2015-Jul-26 12:31N 57°09' W 002°05'0 0.0
2015-Jul-26 10:13N 57°09' W 002°05'0 0.0
2015-Jul-26 09:19N 57°09' W 002°05'1 1.6
2015-Jul-26 08:31N 57°09' W 002°03'1713.0
2015-Jul-26 07:11N 57°23' W 001°45'812.2
2015-Jul-26 06:33N 57°31' W 001°42'1414.1
2015-Jul-26 05:33N 57°44' W 001°48'7314.5
2015-Jul-26 00:33N 58°53' W 002°36'1212.5
2015-Jul-25 23:33N 59°01' W 002°54'1 1.5
2015-Jul-25 22:34N 59°01' W 002°57'1212.3
2015-Jul-25 21:33N 59°01' W 002°33'4 0.2
2015-Jul-25 03:26N 59°04' W 002°27'1213.8
2015-Jul-25 02:33N 59°01' W 002°50'4 4.3
2015-Jul-25 01:33N 58°60' W 002°58'4 4.0
2015-Jul-25 00:33N 59°01' W 002°51'7814.6
2015-Jul-24 19:13N 57°49' W 001°52'914.0
2015-Jul-24 18:33N 57°40' W 001°47'1313.0
2015-Jul-24 17:33N 57°27' W 001°44'1913.8
2015-Jul-24 16:10N 57°11' W 002°01'3 4.5
2015-Jul-24 15:33N 57°09' W 002°05'0 0.0
2015-Jul-24 14:29N 57°09' W 002°05'0 0.0
2015-Jul-24 12:33N 57°09' W 002°05'0 0.0
2015-Jul-24 11:33N 57°09' W 002°05'0 0.0
2015-Jul-24 09:27N 57°09' W 002°05'0 0.0
2015-Jul-24 08:33N 57°09' W 002°05'0 0.0
2015-Jul-24 07:27N 57°09' W 002°05'0 0.3
2015-Jul-24 06:33N 57°08' W 002°04'2411.8
2015-Jul-24 04:33N 57°29' W 001°42'1312.8
2015-Jul-24 03:33N 57°41' W 001°38'87 3.8
2015-Jul-23 04:23N 59°04' W 002°28'1113.1
2015-Jul-23 03:33N 59°01' W 002°48'5 5.3
2015-Jul-23 02:33N 58°60' W 002°58'0 0.0
2015-Jul-23 01:33N 58°60' W 002°58'9 8.8
2015-Jul-23 00:33N 58°59' W 002°42'7515.0
2015-Jul-22 19:33N 57°48' W 001°52'1515.0
2015-Jul-22 18:33N 57°34' W 001°45'2713.5
2015-Jul-22 16:33N 57°09' W 002°03'  
Track history (hours):
 
Tides and Currents Weather Stations Pressure Air Temp Water Temp Dewpoint Dewpoint Depression Visibility Wind Speed Wind Dir Waves Ship Positions

Helliar

Last reported at 2015-Aug-01 15:22 UTC. Time now 2015-Aug-01 16:10 UTC.
Position N 57°09' W 002°05'.

Length 122 m; draft 5.4 m.

Type: Cargo ship. MMSI: 235087119.

Date/timePositionNaut miles runAvg speedWind from/ knotsBaromVisibWave heightAir tempDewpointWater temp
2015-Aug-01 15:22N 57°09' W 002°05'0 0.0
2015-Aug-01 14:22N 57°09' W 002°05'0 0.0
2015-Aug-01 13:10N 57°09' W 002°05'0 0.0
2015-Aug-01 12:22N 57°09' W 002°05'0 0.0
2015-Aug-01 11:16N 57°09' W 002°05'0 0.0
2015-Aug-01 07:28N 57°09' W 002°05'0 0.3
2015-Aug-01 06:32N 57°09' W 002°05'2211.3
2015-Aug-01 04:33N 57°27' W 001°41'1211.9
2015-Aug-01 03:33N 57°39' W 001°40'1212.3
2015-Aug-01 02:33N 57°51' W 001°37'4 0.1
2015-Jul-30 19:33N 57°48' W 001°38'1414.2
2015-Jul-30 18:34N 57°34' W 001°41'2814.0
2015-Jul-30 16:33N 57°09' W 002°05'0 0.3
2015-Jul-30 15:15N 57°09' W 002°05'0 0.0
2015-Jul-30 13:27N 57°09' W 002°05'0 0.0
2015-Jul-30 12:33N 57°09' W 002°05'0 0.0
2015-Jul-30 11:27N 57°09' W 002°05'0 0.0
2015-Jul-30 09:21N 57°09' W 002°05'0 0.0
2015-Jul-30 08:27N 57°09' W 002°05'0 0.2
2015-Jul-30 06:33N 57°09' W 002°05'2210.8
2015-Jul-30 04:33N 57°27' W 001°43'1110.7
2015-Jul-30 03:34N 57°37' W 001°40'1312.9
2015-Jul-30 02:33N 57°50' W 001°37'3 0.1
2015-Jul-28 20:13N 57°48' W 001°34'812.8
2015-Jul-28 19:34N 57°39' W 001°36'1313.4
2015-Jul-28 18:33N 57°26' W 001°44'1714.1
2015-Jul-28 17:19N 57°11' W 001°59'4 4.7
2015-Jul-28 16:25N 57°09' W 002°05'0 0.0
2015-Jul-28 15:25N 57°09' W 002°05'0 0.0
2015-Jul-28 14:31N 57°09' W 002°05'0 0.0
2015-Jul-28 12:13N 57°09' W 002°05'0 0.0
2015-Jul-28 11:31N 57°09' W 002°05'0 0.0
2015-Jul-28 10:31N 57°09' W 002°05'0 0.0
2015-Jul-28 09:31N 57°09' W 002°05'0 0.0
2015-Jul-28 08:19N 57°09' W 002°05'0 0.0
2015-Jul-28 07:31N 57°09' W 002°05'0 0.0
2015-Jul-28 06:31N 57°09' W 002°05'0 0.0
2015-Jul-28 05:19N 57°09' W 002°05'1 1.4
2015-Jul-28 04:33N 57°09' W 002°03'1712.8
2015-Jul-28 03:13N 57°23' W 001°46'812.1
2015-Jul-28 02:33N 57°31' W 001°42'1211.6
2015-Jul-28 01:33N 57°42' W 001°47'1211.7
2015-Jul-28 00:32N 57°53' W 001°55'7412.3
2015-Jul-27 18:33N 59°01' W 002°51'4 3.8
2015-Jul-27 17:33N 58°60' W 002°58'0 0.0
2015-Jul-27 16:33N 58°60' W 002°58'0 0.0
2015-Jul-27 15:33N 58°60' W 002°58'0 0.0
2015-Jul-27 14:33N 58°60' W 002°58'0 0.0
2015-Jul-27 13:33N 58°60' W 002°58'0 0.0
2015-Jul-27 12:33N 58°60' W 002°58'0 0.0
2015-Jul-27 11:33N 58°60' W 002°58'0 0.0
2015-Jul-27 10:33N 58°60' W 002°58'0 0.0
2015-Jul-27 09:33N 58°60' W 002°58'0 0.0
2015-Jul-27 08:33N 58°60' W 002°58'0 0.0
2015-Jul-27 07:33N 58°60' W 002°58'0 0.0
2015-Jul-27 06:33N 58°60' W 002°58'0 0.0
2015-Jul-27 05:33N 58°60' W 002°58'0 0.0
2015-Jul-27 04:33N 58°60' W 002°58'0 0.0
2015-Jul-27 03:33N 58°60' W 002°58'0 0.0
2015-Jul-27 02:33N 58°60' W 002°58'0 0.0
2015-Jul-27 01:33N 58°60' W 002°58'0 0.0
2015-Jul-27 00:33N 58°60' W 002°58'0 0.0
2015-Jul-26 23:33N 58°60' W 002°58'2 1.6
2015-Jul-26 22:33N 59°01' W 002°57'1211.9
2015-Jul-26 21:33N 58°55' W 002°38'6813.4
2015-Jul-26 16:28N 57°51' W 001°54'1415.1
2015-Jul-26 15:33N 57°38' W 001°46'2914.6
2015-Jul-26 13:33N 57°10' W 002°02'2 2.1
2015-Jul-26 12:31N 57°09' W 002°05'0 0.0
2015-Jul-26 10:13N 57°09' W 002°05'0 0.0
2015-Jul-26 09:19N 57°09' W 002°05'1 1.6
2015-Jul-26 08:31N 57°09' W 002°03'1713.0
2015-Jul-26 07:11N 57°23' W 001°45'812.2
2015-Jul-26 06:33N 57°31' W 001°42'1414.1
2015-Jul-26 05:33N 57°44' W 001°48'7314.5
2015-Jul-26 00:33N 58°53' W 002°36'1212.5
2015-Jul-25 23:33N 59°01' W 002°54'1 1.5
2015-Jul-25 22:34N 59°01' W 002°57'1212.3
2015-Jul-25 21:33N 59°01' W 002°33'4 0.2
2015-Jul-25 03:26N 59°04' W 002°27'1213.8
2015-Jul-25 02:33N 59°01' W 002°50'4 4.3
2015-Jul-25 01:33N 58°60' W 002°58'4 4.0
2015-Jul-25 00:33N 59°01' W 002°51'7814.6
2015-Jul-24 19:13N 57°49' W 001°52'914.0
2015-Jul-24 18:33N 57°40' W 001°47'1313.0
2015-Jul-24 17:33N 57°27' W 001°44'1913.8
2015-Jul-24 16:10N 57°11' W 002°01'3 4.5
2015-Jul-24 15:33N 57°09' W 002°05'0 0.0
2015-Jul-24 14:29N 57°09' W 002°05'0 0.0
2015-Jul-24 12:33N 57°09' W 002°05'0 0.0
2015-Jul-24 11:33N 57°09' W 002°05'0 0.0
2015-Jul-24 09:27N 57°09' W 002°05'0 0.0
2015-Jul-24 08:33N 57°09' W 002°05'0 0.0
2015-Jul-24 07:27N 57°09' W 002°05'0 0.3
2015-Jul-24 06:33N 57°08' W 002°04'2411.8
2015-Jul-24 04:33N 57°29' W 001°42'1312.8
2015-Jul-24 03:33N 57°41' W 001°38'87 3.8
2015-Jul-23 04:23N 59°04' W 002°28'1113.1
2015-Jul-23 03:33N 59°01' W 002°48'5 5.3
2015-Jul-23 02:33N 58°60' W 002°58'0 0.0
2015-Jul-23 01:33N 58°60' W 002°58'9 8.8
2015-Jul-23 00:33N 58°59' W 002°42'7515.0
2015-Jul-22 19:33N 57°48' W 001°52'1515.0
2015-Jul-22 18:33N 57°34' W 001°45'2713.5
2015-Jul-22 16:33N 57°09' W 002°03'  

Dump ship's entire track history